Glassville, Canada
Current Conditions -  °F | °C
As of 5:07 PM on Thursday 23 Oct 2014 (Local Time) from KHUL Reporting Station
Light Rain Light Rain  
Wind Chill:   Ceiling: 3200
Heat Index:   Visibility: 2mi
Dew Point:   Wind: 13mph
Humidity: 90%   Direction: 30°NNE
Pressure: 29.96"   Gusts: NA
Location:  46.48°N, 67.42°W
Report Text: KHUL 232007Z AUTO 03011KT 2SM -RA BR FEW019 BKN032 OVC048 08/07 A2996 RMK AO2 P0001 T00830067
Loading
Personal Weather Stations






























Interactive Weather Map
Tropical Storm Tracking
New forecast layout! Learn more

10-Day Weather Forecast

Advertisements
Track Severe Weather on mobile